createdAt,value
2023-03-24T00:01:31.883Z,1.52
2023-03-24T00:06:34.794Z,1.55
2023-03-24T00:11:36.737Z,1.80
2023-03-24T00:16:38.398Z,1.63
2023-03-24T00:21:39.094Z,1.73
2023-03-24T00:26:42.265Z,1.30
2023-03-24T00:31:43.235Z,1.40
2023-03-24T00:36:43.996Z,1.70
2023-03-24T00:41:46.470Z,1.50
2023-03-24T00:46:56.366Z,1.55
2023-03-24T00:51:58.263Z,2.13
2023-03-24T00:57:03.196Z,1.77
2023-03-24T01:02:04.011Z,2.05
2023-03-24T01:07:05.654Z,1.42
2023-03-24T01:12:08.621Z,1.80
2023-03-24T01:17:09.943Z,1.77
2023-03-24T01:22:10.565Z,1.73
2023-03-24T01:27:13.332Z,1.75
2023-03-24T01:32:14.352Z,2.13
2023-03-24T01:37:15.075Z,1.95
2023-03-24T01:42:19.890Z,2.30
2023-03-24T01:47:20.622Z,2.47
2023-03-24T01:52:25.698Z,2.00
2023-03-24T01:57:30.914Z,2.10
2023-03-24T02:02:36.439Z,2.50
2023-03-24T02:07:42.284Z,2.42
2023-03-24T02:12:45.205Z,2.25
2023-03-24T02:17:58.067Z,1.90
2023-03-24T02:23:37.511Z,2.10
2023-03-24T02:28:48.539Z,2.63
2023-03-24T02:34:26.235Z,2.30
2023-03-24T02:39:47.919Z,2.25
2023-03-24T02:44:56.864Z,2.38
2023-03-24T02:50:02.174Z,2.38
2023-03-24T02:55:10.908Z,2.30
2023-03-24T03:00:16.812Z,2.30
2023-03-24T03:05:52.166Z,2.45
2023-03-24T03:10:56.778Z,2.78
2023-03-24T03:16:01.692Z,2.33
2023-03-24T03:21:09.885Z,2.17
2023-03-24T03:26:16.591Z,2.50
2023-03-24T03:31:23.730Z,2.28
2023-03-24T03:36:29.534Z,2.55
2023-03-24T03:41:32.561Z,2.20
2023-03-24T03:46:33.717Z,2.00
2023-03-24T03:51:35.415Z,2.25
2023-03-24T03:56:39.243Z,2.55
2023-03-24T04:01:56.275Z,2.20
2023-03-24T04:07:16.572Z,2.20
2023-03-24T04:12:49.825Z,2.50
2023-03-24T04:18:32.096Z,2.30
2023-03-24T04:23:49.896Z,2.45
2023-03-24T04:29:01.245Z,2.55
2023-03-24T04:34:05.250Z,2.22
2023-03-24T04:39:07.039Z,3.05
2023-03-24T04:44:17.633Z,2.63
2023-03-24T04:49:38.937Z,2.55
2023-03-24T04:54:39.635Z,2.85
2023-03-24T04:59:43.116Z,2.50
2023-03-24T05:04:45.013Z,2.03
2023-03-24T05:10:12.570Z,2.50
2023-03-24T05:15:19.951Z,2.55
2023-03-24T05:20:25.739Z,3.10
2023-03-24T05:25:26.396Z,2.42
2023-03-24T05:30:28.482Z,3.17
2023-03-24T05:35:37.849Z,3.05
2023-03-24T05:40:38.737Z,4.03
2023-03-24T05:45:47.535Z,3.70
2023-03-24T05:50:58.597Z,3.35
2023-03-24T05:56:00.728Z,3.63
2023-03-24T06:01:33.468Z,3.72
2023-03-24T06:06:48.264Z,3.53
2023-03-24T06:11:53.056Z,3.40
2023-03-24T06:16:59.200Z,3.53
2023-03-24T06:22:02.894Z,4.13
2023-03-24T06:27:09.029Z,3.00
2023-03-24T06:32:11.767Z,3.72
2023-03-24T06:37:16.549Z,3.53
2023-03-24T06:42:18.574Z,3.28
2023-03-24T06:47:21.110Z,3.15
2023-03-24T06:52:22.193Z,3.28
2023-03-24T06:57:22.984Z,3.10
2023-03-24T07:02:43.416Z,2.90
2023-03-24T07:13:23.083Z,3.28
2023-03-24T07:18:28.622Z,3.20
2023-03-24T07:23:34.715Z,2.42
2023-03-24T07:28:45.286Z,2.78
2023-03-24T07:33:49.056Z,2.10
2023-03-24T07:38:49.742Z,2.22
2023-03-24T07:43:58.094Z,2.72
2023-03-24T07:49:08.677Z,2.47
2023-03-24T07:54:18.329Z,2.35
2023-03-24T07:59:22.214Z,2.20
2023-03-24T08:04:24.347Z,2.20
2023-03-24T08:09:34.061Z,2.53
2023-03-24T08:14:35.296Z,2.38
2023-03-24T08:19:45.388Z,1.80
2023-03-24T08:24:52.988Z,2.03
2023-03-24T08:29:53.637Z,2.60
2023-03-24T08:34:55.662Z,1.52
2023-03-24T08:39:58.792Z,1.98
2023-03-24T08:45:00.600Z,1.90
2023-03-24T08:50:02.586Z,1.70
2023-03-24T08:55:03.924Z,2.00
2023-03-24T09:00:12.045Z,1.30
2023-03-24T09:05:17.300Z,1.70
2023-03-24T09:10:18.722Z,1.90
2023-03-24T09:15:19.675Z,1.90
2023-03-24T09:20:21.826Z,1.67
2023-03-24T09:25:24.816Z,1.90
2023-03-24T09:30:26.066Z,1.70
2023-03-24T09:35:29.012Z,1.45
2023-03-24T09:40:32.285Z,1.80
2023-03-24T09:45:38.243Z,2.72
2023-03-24T09:50:44.414Z,1.70
2023-03-24T09:55:46.185Z,1.52
2023-03-24T10:00:47.684Z,1.42
2023-03-24T10:05:55.404Z,1.65
2023-03-24T10:11:03.018Z,1.52
2023-03-24T10:16:11.421Z,1.83
2023-03-24T10:21:20.897Z,2.33
2023-03-24T10:26:32.920Z,1.40
2023-03-24T10:31:36.028Z,0.82
2023-03-24T10:36:39.372Z,0.88
2023-03-24T10:41:43.825Z,0.98
2023-03-24T10:46:49.076Z,1.15
2023-03-24T10:51:52.521Z,0.55
2023-03-24T10:57:02.621Z,0.80
2023-03-24T11:02:16.913Z,0.80
2023-03-24T11:07:21.591Z,0.63
2023-03-24T11:12:24.345Z,0.80
2023-03-24T11:17:28.306Z,0.60
2023-03-24T11:22:31.325Z,0.57
2023-03-24T11:27:32.567Z,0.63
2023-03-24T11:32:33.538Z,0.68
2023-03-24T11:37:37.787Z,0.68
2023-03-24T11:42:44.137Z,0.82
2023-03-24T11:47:46.716Z,0.70
2023-03-24T11:52:54.125Z,0.60
2023-03-24T11:58:01.090Z,0.70
2023-03-24T12:03:38.084Z,0.88
2023-03-24T12:08:52.872Z,0.75
2023-03-24T12:13:54.005Z,0.90
2023-03-24T12:19:12.062Z,0.70
2023-03-24T12:24:27.602Z,0.52
2023-03-24T12:29:52.013Z,0.60
2023-03-24T12:35:19.123Z,0.50
2023-03-24T12:40:45.811Z,0.70
2023-03-24T12:45:52.655Z,0.70
2023-03-24T12:51:06.942Z,0.60
2023-03-24T12:56:14.189Z,0.60
2023-03-24T13:01:24.755Z,0.82
2023-03-24T13:06:32.414Z,0.70
2023-03-24T13:11:44.422Z,0.57
2023-03-24T13:16:48.630Z,0.50
2023-03-24T13:21:51.807Z,0.60
2023-03-24T13:27:03.526Z,0.80
2023-03-24T13:32:10.480Z,0.82
2023-03-24T13:37:15.119Z,0.77
2023-03-24T13:42:31.749Z,0.93
2023-03-24T13:47:51.363Z,0.80
2023-03-24T13:52:52.328Z,0.77
2023-03-24T13:57:57.812Z,0.65
2023-03-24T14:03:15.434Z,0.80
2023-03-24T14:08:19.187Z,0.82
2023-03-24T14:13:47.893Z,1.70
2023-03-24T14:18:49.329Z,0.70
2023-03-24T14:23:52.593Z,1.00
2023-03-24T14:28:56.360Z,1.00
2023-03-24T14:34:05.872Z,1.05
2023-03-24T14:39:26.319Z,1.58
2023-03-24T14:44:57.188Z,1.00
2023-03-24T14:50:03.945Z,0.90
2023-03-24T14:55:07.761Z,1.35
2023-03-24T15:00:19.657Z,1.20
2023-03-24T15:05:24.957Z,1.60
2023-03-24T15:10:25.760Z,1.15
2023-03-24T15:15:31.663Z,1.30
2023-03-24T15:20:35.848Z,1.20
2023-03-24T15:25:41.972Z,1.20
2023-03-24T15:30:50.528Z,1.58
2023-03-24T15:35:57.103Z,2.03
2023-03-24T15:41:01.028Z,2.08
2023-03-24T15:46:12.450Z,1.08
2023-03-24T15:51:17.209Z,1.58
2023-03-24T15:56:21.726Z,1.42
2023-03-24T16:01:31.076Z,1.45
2023-03-24T16:06:35.248Z,1.45
2023-03-24T16:11:35.996Z,1.23
2023-03-24T16:16:39.541Z,1.45
2023-03-24T16:21:40.481Z,1.27
2023-03-24T16:26:41.134Z,1.13
2023-03-24T16:31:44.175Z,1.17
2023-03-24T16:36:44.803Z,1.17
2023-03-24T16:41:45.902Z,1.33
2023-03-24T16:46:49.260Z,1.15
2023-03-24T16:51:50.123Z,2.05
2023-03-24T16:56:50.932Z,1.45
2023-03-24T17:01:53.682Z,1.48
2023-03-24T17:06:54.974Z,1.30
2023-03-24T17:11:58.430Z,1.23
2023-03-24T17:17:02.857Z,1.10
2023-03-24T17:22:07.050Z,1.40
2023-03-24T17:27:11.659Z,0.93
2023-03-24T17:32:13.709Z,1.08
2023-03-24T17:37:14.351Z,1.08
2023-03-24T17:42:14.975Z,1.10
2023-03-24T17:47:17.141Z,1.17
2023-03-24T17:52:17.853Z,1.05
2023-03-24T17:57:18.911Z,1.45
2023-03-24T18:02:20.857Z,1.38
2023-03-24T18:07:23.036Z,1.20
2023-03-24T18:12:24.685Z,1.67
2023-03-24T18:17:26.707Z,1.50
2023-03-24T18:22:27.711Z,1.30
2023-03-24T18:27:28.441Z,1.38
2023-03-24T18:32:33.017Z,1.52
2023-03-24T18:37:33.737Z,1.23
2023-03-24T18:42:34.452Z,1.58
2023-03-24T18:47:36.566Z,1.08
2023-03-24T18:52:37.276Z,1.58
2023-03-24T18:57:37.947Z,1.35
2023-03-24T19:02:40.544Z,1.30
2023-03-24T19:07:41.283Z,1.00
2023-03-24T19:12:41.923Z,1.38
2023-03-24T19:17:43.890Z,1.45
2023-03-24T19:22:44.563Z,1.63
2023-03-24T19:27:45.503Z,1.40
2023-03-24T19:32:47.694Z,1.77
2023-03-24T19:37:48.435Z,1.55
2023-03-24T19:42:49.263Z,1.48
2023-03-24T19:47:51.289Z,1.58
2023-03-24T19:52:52.048Z,1.35
2023-03-24T19:57:52.740Z,1.42
2023-03-24T20:02:54.779Z,1.63
2023-03-24T20:07:58.482Z,2.65
2023-03-24T20:13:00.457Z,1.38
2023-03-24T20:18:02.746Z,1.67
2023-03-24T20:23:03.439Z,1.75
2023-03-24T20:28:04.176Z,1.08
2023-03-24T20:33:06.450Z,1.30
2023-03-24T20:38:07.138Z,2.05
2023-03-24T20:43:07.787Z,1.60
2023-03-24T20:48:09.734Z,2.08
2023-03-24T20:53:10.375Z,1.40
2023-03-24T20:58:11.288Z,1.50
2023-03-24T21:03:13.347Z,1.30
2023-03-24T21:08:14.064Z,1.40
2023-03-24T21:13:16.761Z,1.25
2023-03-24T21:18:19.298Z,1.25
2023-03-24T21:23:21.558Z,1.30
2023-03-24T21:28:22.202Z,1.52
2023-03-24T21:33:24.288Z,1.50
2023-03-24T21:38:25.443Z,1.10
2023-03-24T21:43:27.090Z,1.80
2023-03-24T21:48:29.206Z,1.13
2023-03-24T21:53:29.918Z,1.88
2023-03-24T21:58:31.523Z,1.33
2023-03-24T22:03:34.568Z,1.45
2023-03-24T22:08:35.307Z,1.42
2023-03-24T22:13:37.100Z,1.10
2023-03-24T22:18:39.082Z,1.23
2023-03-24T22:23:42.392Z,2.05
2023-03-24T22:28:43.451Z,1.27
2023-03-24T22:33:47.518Z,1.30
2023-03-24T22:38:48.205Z,1.40
2023-03-24T22:43:49.264Z,1.00
2023-03-24T22:48:51.582Z,1.58
2023-03-24T22:53:52.477Z,1.50
2023-03-24T22:58:53.206Z,1.23
2023-03-24T23:03:55.376Z,1.35
2023-03-24T23:08:56.958Z,1.05
2023-03-24T23:14:04.334Z,1.40
2023-03-24T23:19:08.498Z,1.30
2023-03-24T23:24:09.402Z,1.30
2023-03-24T23:29:10.172Z,1.20
2023-03-24T23:34:12.867Z,1.13
2023-03-24T23:39:14.536Z,1.05
2023-03-24T23:44:19.570Z,1.08
2023-03-24T23:49:21.605Z,1.25
2023-03-24T23:54:22.293Z,1.10
2023-03-24T23:59:22.931Z,1.15
